sensor_id;sensor_type;location;lat;lon;timestamp;P1;durP1;ratioP1;P2;durP2;ratioP2
9304;SDS011;4690;52.422;13.486;2022-12-07T00:06:24;29.83;;;16.07;;
9304;SDS011;4690;52.422;13.486;2022-12-07T00:08:50;28.73;;;15.27;;
9304;SDS011;4690;52.422;13.486;2022-12-07T00:11:20;27.30;;;15.60;;
9304;SDS011;4690;52.422;13.486;2022-12-07T00:13:51;36.67;;;16.80;;
9304;SDS011;4690;52.422;13.486;2022-12-07T00:16:21;26.93;;;15.97;;
9304;SDS011;4690;52.422;13.486;2022-12-07T00:18:50;26.53;;;15.33;;
9304;SDS011;4690;52.422;13.486;2022-12-07T00:21:17;26.93;;;16.00;;
9304;SDS011;4690;52.422;13.486;2022-12-07T00:24:06;22.33;;;14.57;;
9304;SDS011;4690;52.422;13.486;2022-12-07T00:26:33;27.57;;;15.73;;
9304;SDS011;4690;52.422;13.486;2022-12-07T00:29:02;27.37;;;15.33;;
9304;SDS011;4690;52.422;13.486;2022-12-07T00:31:43;24.90;;;15.47;;
9304;SDS011;4690;52.422;13.486;2022-12-07T00:34:13;27.93;;;15.33;;
9304;SDS011;4690;52.422;13.486;2022-12-07T00:36:43;19.90;;;14.57;;
9304;SDS011;4690;52.422;13.486;2022-12-07T00:39:09;26.37;;;15.27;;
9304;SDS011;4690;52.422;13.486;2022-12-07T00:41:34;33.70;;;15.43;;
9304;SDS011;4690;52.422;13.486;2022-12-07T00:44:00;19.57;;;13.90;;
9304;SDS011;4690;52.422;13.486;2022-12-07T00:46:26;22.47;;;13.93;;
9304;SDS011;4690;52.422;13.486;2022-12-07T00:48:52;36.97;;;16.13;;
9304;SDS011;4690;52.422;13.486;2022-12-07T00:51:20;16.97;;;13.53;;
9304;SDS011;4690;52.422;13.486;2022-12-07T00:53:49;25.53;;;14.73;;
9304;SDS011;4690;52.422;13.486;2022-12-07T00:56:19;19.47;;;13.47;;
9304;SDS011;4690;52.422;13.486;2022-12-07T01:01:23;14.53;;;12.00;;
9304;SDS011;4690;52.422;13.486;2022-12-07T01:03:52;17.90;;;12.37;;
9304;SDS011;4690;52.422;13.486;2022-12-07T01:06:18;14.97;;;12.10;;
9304;SDS011;4690;52.422;13.486;2022-12-07T01:08:46;20.37;;;12.97;;
9304;SDS011;4690;52.422;13.486;2022-12-07T01:11:14;17.67;;;11.73;;
9304;SDS011;4690;52.422;13.486;2022-12-07T01:13:43;16.03;;;11.70;;
9304;SDS011;4690;52.422;13.486;2022-12-07T01:16:10;16.90;;;11.80;;
9304;SDS011;4690;52.422;13.486;2022-12-07T01:18:40;13.73;;;11.20;;
9304;SDS011;4690;52.422;13.486;2022-12-07T01:21:13;14.63;;;11.37;;
9304;SDS011;4690;52.422;13.486;2022-12-07T01:23:45;16.20;;;11.27;;
9304;SDS011;4690;52.422;13.486;2022-12-07T01:26:13;12.50;;;10.30;;
9304;SDS011;4690;52.422;13.486;2022-12-07T01:28:41;14.07;;;10.73;;
9304;SDS011;4690;52.422;13.486;2022-12-07T01:31:09;14.27;;;11.27;;
9304;SDS011;4690;52.422;13.486;2022-12-07T01:33:40;13.97;;;11.00;;
9304;SDS011;4690;52.422;13.486;2022-12-07T01:36:15;22.10;;;12.23;;
9304;SDS011;4690;52.422;13.486;2022-12-07T01:38:50;11.23;;;9.80;;
9304;SDS011;4690;52.422;13.486;2022-12-07T01:41:21;11.23;;;10.03;;
9304;SDS011;4690;52.422;13.486;2022-12-07T01:46:34;11.17;;;9.37;;
9304;SDS011;4690;52.422;13.486;2022-12-07T01:49:00;12.40;;;9.73;;
9304;SDS011;4690;52.422;13.486;2022-12-07T01:51:28;11.03;;;9.80;;
9304;SDS011;4690;52.422;13.486;2022-12-07T01:53:54;10.33;;;9.23;;
9304;SDS011;4690;52.422;13.486;2022-12-07T01:56:22;14.10;;;9.97;;
9304;SDS011;4690;52.422;13.486;2022-12-07T01:58:53;10.33;;;9.23;;
9304;SDS011;4690;52.422;13.486;2022-12-07T02:01:21;12.60;;;8.80;;
9304;SDS011;4690;52.422;13.486;2022-12-07T02:03:47;11.30;;;9.50;;
9304;SDS011;4690;52.422;13.486;2022-12-07T02:06:16;11.00;;;8.80;;
9304;SDS011;4690;52.422;13.486;2022-12-07T02:08:47;11.57;;;9.20;;
9304;SDS011;4690;52.422;13.486;2022-12-07T02:11:13;9.97;;;8.53;;
9304;SDS011;4690;52.422;13.486;2022-12-07T02:13:40;10.70;;;9.27;;
9304;SDS011;4690;52.422;13.486;2022-12-07T02:16:16;11.07;;;9.37;;
9304;SDS011;4690;52.422;13.486;2022-12-07T02:25:29;11.50;;;9.77;;
9304;SDS011;4690;52.422;13.486;2022-12-07T02:28:12;11.90;;;10.13;;
9304;SDS011;4690;52.422;13.486;2022-12-07T02:30:52;9.10;;;8.20;;
9304;SDS011;4690;52.422;13.486;2022-12-07T02:33:41;13.20;;;10.00;;
9304;SDS011;4690;52.422;13.486;2022-12-07T02:36:27;12.93;;;9.77;;
9304;SDS011;4690;52.422;13.486;2022-12-07T02:39:02;10.67;;;9.20;;
9304;SDS011;4690;52.422;13.486;2022-12-07T02:41:51;10.70;;;9.60;;
9304;SDS011;4690;52.422;13.486;2022-12-07T02:44:24;11.00;;;9.13;;
9304;SDS011;4690;52.422;13.486;2022-12-07T02:46:53;15.33;;;10.33;;
9304;SDS011;4690;52.422;13.486;2022-12-07T02:49:26;13.97;;;9.70;;
9304;SDS011;4690;52.422;13.486;2022-12-07T02:51:53;11.53;;;9.80;;
9304;SDS011;4690;52.422;13.486;2022-12-07T02:54:20;11.17;;;9.97;;
9304;SDS011;4690;52.422;13.486;2022-12-07T02:56:57;10.30;;;9.20;;
9304;SDS011;4690;52.422;13.486;2022-12-07T03:00:07;11.10;;;9.47;;
9304;SDS011;4690;52.422;13.486;2022-12-07T03:08:11;10.83;;;8.40;;
9304;SDS011;4690;52.422;13.486;2022-12-07T03:18:56;9.50;;;8.60;;
9304;SDS011;4690;52.422;13.486;2022-12-07T03:21:33;11.00;;;9.07;;
9304;SDS011;4690;52.422;13.486;2022-12-07T03:24:09;10.77;;;9.03;;
9304;SDS011;4690;52.422;13.486;2022-12-07T03:26:47;11.20;;;9.23;;
9304;SDS011;4690;52.422;13.486;2022-12-07T03:29:21;10.73;;;9.63;;
9304;SDS011;4690;52.422;13.486;2022-12-07T03:32:01;15.73;;;10.33;;
9304;SDS011;4690;52.422;13.486;2022-12-07T03:34:41;13.40;;;9.67;;
9304;SDS011;4690;52.422;13.486;2022-12-07T03:37:36;14.07;;;9.87;;
9304;SDS011;4690;52.422;13.486;2022-12-07T03:40:30;11.63;;;9.47;;
9304;SDS011;4690;52.422;13.486;2022-12-07T03:43:16;11.27;;;9.53;;
9304;SDS011;4690;52.422;13.486;2022-12-07T03:45:45;11.93;;;9.40;;
9304;SDS011;4690;52.422;13.486;2022-12-07T03:48:46;12.23;;;10.10;;
9304;SDS011;4690;52.422;13.486;2022-12-07T03:54:41;14.30;;;10.33;;
9304;SDS011;4690;52.422;13.486;2022-12-07T03:57:26;14.23;;;11.27;;
9304;SDS011;4690;52.422;13.486;2022-12-07T03:59:56;16.73;;;11.03;;
9304;SDS011;4690;52.422;13.486;2022-12-07T04:02:23;16.97;;;11.53;;
9304;SDS011;4690;52.422;13.486;2022-12-07T04:04:52;14.37;;;11.00;;
9304;SDS011;4690;52.422;13.486;2022-12-07T04:07:19;16.70;;;11.53;;
9304;SDS011;4690;52.422;13.486;2022-12-07T04:09:45;16.57;;;11.70;;
9304;SDS011;4690;52.422;13.486;2022-12-07T04:12:11;18.50;;;12.23;;
9304;SDS011;4690;52.422;13.486;2022-12-07T04:14:37;23.10;;;13.67;;
9304;SDS011;4690;52.422;13.486;2022-12-07T04:17:02;19.10;;;12.73;;
9304;SDS011;4690;52.422;13.486;2022-12-07T04:19:30;23.17;;;13.50;;
9304;SDS011;4690;52.422;13.486;2022-12-07T04:21:59;19.97;;;13.77;;
9304;SDS011;4690;52.422;13.486;2022-12-07T04:24:27;20.97;;;14.23;;
9304;SDS011;4690;52.422;13.486;2022-12-07T04:26:53;20.67;;;13.93;;
9304;SDS011;4690;52.422;13.486;2022-12-07T04:29:20;29.53;;;15.97;;
9304;SDS011;4690;52.422;13.486;2022-12-07T04:31:47;19.27;;;14.57;;
9304;SDS011;4690;52.422;13.486;2022-12-07T04:34:14;22.23;;;15.27;;
9304;SDS011;4690;52.422;13.486;2022-12-07T04:36:42;26.47;;;16.30;;
9304;SDS011;4690;52.422;13.486;2022-12-07T04:39:23;31.20;;;16.97;;
9304;SDS011;4690;52.422;13.486;2022-12-07T04:41:54;25.20;;;17.37;;
9304;SDS011;4690;52.422;13.486;2022-12-07T04:44:21;25.97;;;16.77;;
9304;SDS011;4690;52.422;13.486;2022-12-07T04:46:49;28.47;;;17.10;;
9304;SDS011;4690;52.422;13.486;2022-12-07T04:49:16;26.83;;;18.53;;
9304;SDS011;4690;52.422;13.486;2022-12-07T04:51:43;41.83;;;19.33;;
9304;SDS011;4690;52.422;13.486;2022-12-07T04:54:09;49.90;;;20.90;;
9304;SDS011;4690;52.422;13.486;2022-12-07T04:56:35;30.50;;;18.23;;
9304;SDS011;4690;52.422;13.486;2022-12-07T04:59:02;43.93;;;20.93;;
9304;SDS011;4690;52.422;13.486;2022-12-07T05:01:28;58.47;;;23.43;;
9304;SDS011;4690;52.422;13.486;2022-12-07T05:03:55;34.67;;;20.07;;
9304;SDS011;4690;52.422;13.486;2022-12-07T05:06:20;48.97;;;21.67;;
9304;SDS011;4690;52.422;13.486;2022-12-07T05:08:46;51.83;;;22.83;;
9304;SDS011;4690;52.422;13.486;2022-12-07T05:11:12;46.03;;;22.43;;
9304;SDS011;4690;52.422;13.486;2022-12-07T05:14:00;29.03;;;19.60;;
9304;SDS011;4690;52.422;13.486;2022-12-07T05:16:27;53.33;;;23.57;;
9304;SDS011;4690;52.422;13.486;2022-12-07T05:18:54;55.97;;;24.10;;
9304;SDS011;4690;52.422;13.486;2022-12-07T05:21:20;38.63;;;21.90;;
9304;SDS011;4690;52.422;13.486;2022-12-07T05:23:45;57.30;;;24.77;;
9304;SDS011;4690;52.422;13.486;2022-12-07T05:26:11;43.27;;;24.33;;
9304;SDS011;4690;52.422;13.486;2022-12-07T05:28:37;38.40;;;22.53;;
9304;SDS011;4690;52.422;13.486;2022-12-07T05:31:03;53.80;;;24.27;;
9304;SDS011;4690;52.422;13.486;2022-12-07T05:33:29;60.13;;;26.07;;
9304;SDS011;4690;52.422;13.486;2022-12-07T05:35:54;50.67;;;24.63;;
9304;SDS011;4690;52.422;13.486;2022-12-07T05:38:20;51.70;;;23.70;;
9304;SDS011;4690;52.422;13.486;2022-12-07T05:40:46;35.40;;;22.30;;
9304;SDS011;4690;52.422;13.486;2022-12-07T05:43:12;49.07;;;23.30;;
9304;SDS011;4690;52.422;13.486;2022-12-07T05:45:37;47.60;;;23.47;;
9304;SDS011;4690;52.422;13.486;2022-12-07T05:48:03;57.77;;;24.87;;
9304;SDS011;4690;52.422;13.486;2022-12-07T05:50:29;51.83;;;25.00;;
9304;SDS011;4690;52.422;13.486;2022-12-07T05:52:55;43.63;;;24.40;;
9304;SDS011;4690;52.422;13.486;2022-12-07T05:55:20;54.07;;;23.80;;
9304;SDS011;4690;52.422;13.486;2022-12-07T05:57:46;66.27;;;26.27;;
9304;SDS011;4690;52.422;13.486;2022-12-07T06:00:31;54.90;;;25.83;;
9304;SDS011;4690;52.422;13.486;2022-12-07T06:02:57;66.77;;;27.73;;
9304;SDS011;4690;52.422;13.486;2022-12-07T06:05:23;70.27;;;28.17;;
9304;SDS011;4690;52.422;13.486;2022-12-07T06:07:49;64.70;;;27.33;;
9304;SDS011;4690;52.422;13.486;2022-12-07T06:10:14;67.90;;;28.17;;
9304;SDS011;4690;52.422;13.486;2022-12-07T06:12:40;72.00;;;28.97;;
9304;SDS011;4690;52.422;13.486;2022-12-07T06:15:08;100.90;;;33.23;;
9304;SDS011;4690;52.422;13.486;2022-12-07T06:17:35;97.20;;;32.90;;
9304;SDS011;4690;52.422;13.486;2022-12-07T06:20:02;61.57;;;29.57;;
9304;SDS011;4690;52.422;13.486;2022-12-07T06:22:29;56.60;;;29.70;;
9304;SDS011;4690;52.422;13.486;2022-12-07T06:24:54;79.30;;;31.40;;
9304;SDS011;4690;52.422;13.486;2022-12-07T06:27:20;71.63;;;29.13;;
9304;SDS011;4690;52.422;13.486;2022-12-07T06:29:46;87.30;;;31.57;;
9304;SDS011;4690;52.422;13.486;2022-12-07T06:32:12;67.73;;;30.87;;
9304;SDS011;4690;52.422;13.486;2022-12-07T06:34:37;84.23;;;33.07;;
9304;SDS011;4690;52.422;13.486;2022-12-07T06:37:03;52.70;;;29.60;;
9304;SDS011;4690;52.422;13.486;2022-12-07T06:39:29;73.47;;;30.43;;
9304;SDS011;4690;52.422;13.486;2022-12-07T06:41:55;82.13;;;31.83;;
9304;SDS011;4690;52.422;13.486;2022-12-07T06:44:22;76.57;;;32.37;;
9304;SDS011;4690;52.422;13.486;2022-12-07T06:46:48;79.07;;;32.57;;
9304;SDS011;4690;52.422;13.486;2022-12-07T06:49:15;55.30;;;28.13;;
9304;SDS011;4690;52.422;13.486;2022-12-07T06:51:41;74.13;;;30.53;;
9304;SDS011;4690;52.422;13.486;2022-12-07T06:54:08;97.87;;;32.13;;
9304;SDS011;4690;52.422;13.486;2022-12-07T06:56:36;90.70;;;32.60;;
9304;SDS011;4690;52.422;13.486;2022-12-07T06:59:02;48.37;;;27.87;;
9304;SDS011;4690;52.422;13.486;2022-12-07T07:01:31;83.72;;;33.65;;
9304;SDS011;4690;52.422;13.486;2022-12-07T07:03:58;62.40;;;30.60;;
9304;SDS011;4690;52.422;13.486;2022-12-07T07:06:25;69.63;;;33.03;;
9304;SDS011;4690;52.422;13.486;2022-12-07T07:08:51;72.77;;;30.13;;
9304;SDS011;4690;52.422;13.486;2022-12-07T07:11:17;67.20;;;30.23;;
9304;SDS011;4690;52.422;13.486;2022-12-07T07:13:43;75.13;;;31.50;;
9304;SDS011;4690;52.422;13.486;2022-12-07T07:16:10;67.43;;;29.53;;
9304;SDS011;4690;52.422;13.486;2022-12-07T07:18:36;87.33;;;33.07;;
9304;SDS011;4690;52.422;13.486;2022-12-07T07:21:02;59.37;;;28.93;;
9304;SDS011;4690;52.422;13.486;2022-12-07T07:23:28;74.57;;;31.10;;
9304;SDS011;4690;52.422;13.486;2022-12-07T07:25:54;91.87;;;32.90;;
9304;SDS011;4690;52.422;13.486;2022-12-07T07:28:20;44.90;;;27.17;;
9304;SDS011;4690;52.422;13.486;2022-12-07T07:30:46;47.03;;;27.27;;
9304;SDS011;4690;52.422;13.486;2022-12-07T07:33:12;54.10;;;27.07;;
9304;SDS011;4690;52.422;13.486;2022-12-07T07:35:38;61.30;;;27.77;;
9304;SDS011;4690;52.422;13.486;2022-12-07T07:38:04;66.27;;;28.90;;
9304;SDS011;4690;52.422;13.486;2022-12-07T07:40:31;54.20;;;27.47;;
9304;SDS011;4690;52.422;13.486;2022-12-07T07:42:58;54.23;;;27.67;;
9304;SDS011;4690;52.422;13.486;2022-12-07T07:45:24;91.90;;;32.83;;
9304;SDS011;4690;52.422;13.486;2022-12-07T07:47:51;43.77;;;24.90;;
9304;SDS011;4690;52.422;13.486;2022-12-07T07:50:18;80.57;;;31.13;;
9304;SDS011;4690;52.422;13.486;2022-12-07T07:52:44;64.33;;;28.63;;
9304;SDS011;4690;52.422;13.486;2022-12-07T07:55:10;68.80;;;28.00;;
9304;SDS011;4690;52.422;13.486;2022-12-07T07:57:37;78.13;;;29.70;;
9304;SDS011;4690;52.422;13.486;2022-12-07T08:00:07;55.57;;;27.53;;
9304;SDS011;4690;52.422;13.486;2022-12-07T08:02:36;61.33;;;26.80;;
9304;SDS011;4690;52.422;13.486;2022-12-07T08:05:03;72.60;;;29.10;;
9304;SDS011;4690;52.422;13.486;2022-12-07T08:07:29;44.97;;;23.30;;
9304;SDS011;4690;52.422;13.486;2022-12-07T08:09:54;34.77;;;20.77;;
9304;SDS011;4690;52.422;13.486;2022-12-07T08:12:20;36.47;;;20.40;;
9304;SDS011;4690;52.422;13.486;2022-12-07T08:14:46;50.03;;;21.93;;
9304;SDS011;4690;52.422;13.486;2022-12-07T08:17:12;34.70;;;21.10;;
9304;SDS011;4690;52.422;13.486;2022-12-07T08:19:37;47.37;;;21.90;;
9304;SDS011;4690;52.422;13.486;2022-12-07T08:22:03;31.73;;;18.03;;
9304;SDS011;4690;52.422;13.486;2022-12-07T08:24:29;36.47;;;19.30;;
9304;SDS011;4690;52.422;13.486;2022-12-07T08:26:58;35.90;;;18.13;;
9304;SDS011;4690;52.422;13.486;2022-12-07T08:29:24;51.50;;;20.10;;
9304;SDS011;4690;52.422;13.486;2022-12-07T08:31:49;29.07;;;17.83;;
9304;SDS011;4690;52.422;13.486;2022-12-07T08:34:15;23.40;;;14.97;;
9304;SDS011;4690;52.422;13.486;2022-12-07T08:36:41;23.70;;;15.33;;
9304;SDS011;4690;52.422;13.486;2022-12-07T08:39:07;25.70;;;14.70;;
9304;SDS011;4690;52.422;13.486;2022-12-07T08:41:33;18.97;;;12.13;;
9304;SDS011;4690;52.422;13.486;2022-12-07T08:43:59;15.97;;;11.13;;
9304;SDS011;4690;52.422;13.486;2022-12-07T08:46:38;8.97;;;7.23;;
9304;SDS011;4690;52.422;13.486;2022-12-07T08:49:16;9.97;;;7.83;;
9304;SDS011;4690;52.422;13.486;2022-12-07T08:51:48;9.33;;;6.57;;
9304;SDS011;4690;52.422;13.486;2022-12-07T08:54:15;7.93;;;6.10;;
9304;SDS011;4690;52.422;13.486;2022-12-07T08:56:44;7.67;;;6.10;;
9304;SDS011;4690;52.422;13.486;2022-12-07T08:59:12;7.23;;;5.50;;
9304;SDS011;4690;52.422;13.486;2022-12-07T09:01:42;6.53;;;5.17;;
9304;SDS011;4690;52.422;13.486;2022-12-07T09:04:08;7.77;;;5.63;;
9304;SDS011;4690;52.422;13.486;2022-12-07T09:06:34;6.63;;;5.23;;
9304;SDS011;4690;52.422;13.486;2022-12-07T09:09:00;6.00;;;5.30;;
9304;SDS011;4690;52.422;13.486;2022-12-07T09:11:28;8.03;;;6.23;;
9304;SDS011;4690;52.422;13.486;2022-12-07T09:13:54;6.07;;;5.07;;
9304;SDS011;4690;52.422;13.486;2022-12-07T09:16:20;6.60;;;5.03;;
9304;SDS011;4690;52.422;13.486;2022-12-07T09:18:46;7.10;;;5.90;;
9304;SDS011;4690;52.422;13.486;2022-12-07T09:21:12;7.20;;;5.27;;
9304;SDS011;4690;52.422;13.486;2022-12-07T09:23:37;7.10;;;5.73;;
9304;SDS011;4690;52.422;13.486;2022-12-07T09:26:03;6.93;;;5.37;;
9304;SDS011;4690;52.422;13.486;2022-12-07T09:28:30;6.70;;;4.70;;
9304;SDS011;4690;52.422;13.486;2022-12-07T09:30:56;4.83;;;4.43;;
9304;SDS011;4690;52.422;13.486;2022-12-07T09:33:22;6.37;;;5.10;;
9304;SDS011;4690;52.422;13.486;2022-12-07T09:35:49;4.10;;;3.70;;
9304;SDS011;4690;52.422;13.486;2022-12-07T09:38:16;6.57;;;4.70;;
9304;SDS011;4690;52.422;13.486;2022-12-07T09:40:43;4.70;;;4.20;;
9304;SDS011;4690;52.422;13.486;2022-12-07T09:43:20;4.20;;;3.80;;
9304;SDS011;4690;52.422;13.486;2022-12-07T09:45:50;7.07;;;4.53;;
9304;SDS011;4690;52.422;13.486;2022-12-07T09:48:20;3.90;;;3.60;;
9304;SDS011;4690;52.422;13.486;2022-12-07T09:50:54;3.90;;;3.47;;
9304;SDS011;4690;52.422;13.486;2022-12-07T09:53:25;3.80;;;3.50;;
9304;SDS011;4690;52.422;13.486;2022-12-07T09:55:58;3.77;;;3.13;;
9304;SDS011;4690;52.422;13.486;2022-12-07T09:58:26;3.50;;;3.20;;
9304;SDS011;4690;52.422;13.486;2022-12-07T10:01:05;3.60;;;3.20;;
9304;SDS011;4690;52.422;13.486;2022-12-07T10:03:35;4.17;;;3.23;;
9304;SDS011;4690;52.422;13.486;2022-12-07T10:06:04;3.70;;;3.40;;
9304;SDS011;4690;52.422;13.486;2022-12-07T10:08:32;4.00;;;3.60;;
9304;SDS011;4690;52.422;13.486;2022-12-07T10:10:58;3.97;;;3.67;;
9304;SDS011;4690;52.422;13.486;2022-12-07T10:13:38;3.73;;;3.43;;
9304;SDS011;4690;52.422;13.486;2022-12-07T10:18:49;4.10;;;3.70;;
9304;SDS011;4690;52.422;13.486;2022-12-07T10:21:20;4.20;;;3.50;;
9304;SDS011;4690;52.422;13.486;2022-12-07T10:24:03;4.40;;;4.00;;
9304;SDS011;4690;52.422;13.486;2022-12-07T10:29:38;4.20;;;3.00;;
9304;SDS011;4690;52.422;13.486;2022-12-07T10:34:40;4.70;;;3.40;;
9304;SDS011;4690;52.422;13.486;2022-12-07T10:42:20;3.43;;;3.13;;
9304;SDS011;4690;52.422;13.486;2022-12-07T10:44:50;3.47;;;2.80;;
9304;SDS011;4690;52.422;13.486;2022-12-07T10:47:50;3.17;;;2.87;;
9304;SDS011;4690;52.422;13.486;2022-12-07T10:56:46;5.97;;;3.00;;
9304;SDS011;4690;52.422;13.486;2022-12-07T10:59:39;4.27;;;3.70;;
9304;SDS011;4690;52.422;13.486;2022-12-07T11:05:48;4.37;;;3.87;;
9304;SDS011;4690;52.422;13.486;2022-12-07T11:11:45;4.23;;;3.80;;
9304;SDS011;4690;52.422;13.486;2022-12-07T11:26:54;6.23;;;4.50;;
9304;SDS011;4690;52.422;13.486;2022-12-07T11:35:42;4.00;;;3.63;;
9304;SDS011;4690;52.422;13.486;2022-12-07T11:38:50;3.90;;;3.53;;
9304;SDS011;4690;52.422;13.486;2022-12-07T11:41:35;4.13;;;3.63;;
9304;SDS011;4690;52.422;13.486;2022-12-07T11:44:07;5.27;;;3.73;;
9304;SDS011;4690;52.422;13.486;2022-12-07T11:47:10;4.23;;;3.70;;
9304;SDS011;4690;52.422;13.486;2022-12-07T11:50:33;5.93;;;4.33;;
9304;SDS011;4690;52.422;13.486;2022-12-07T11:58:49;6.23;;;3.20;;
9304;SDS011;4690;52.422;13.486;2022-12-07T12:01:28;5.53;;;3.87;;
9304;SDS011;4690;52.422;13.486;2022-12-07T12:06:34;5.67;;;3.80;;
9304;SDS011;4690;52.422;13.486;2022-12-07T12:20:51;7.03;;;3.73;;
9304;SDS011;4690;52.422;13.486;2022-12-07T12:23:48;6.30;;;3.30;;
9304;SDS011;4690;52.422;13.486;2022-12-07T12:26:26;7.33;;;2.83;;
9304;SDS011;4690;52.422;13.486;2022-12-07T12:28:58;5.50;;;3.10;;
9304;SDS011;4690;52.422;13.486;2022-12-07T12:31:34;4.57;;;3.03;;
9304;SDS011;4690;52.422;13.486;2022-12-07T12:42:50;4.90;;;2.87;;
9304;SDS011;4690;52.422;13.486;2022-12-07T12:45:19;4.27;;;3.00;;
9304;SDS011;4690;52.422;13.486;2022-12-07T12:47:52;7.83;;;2.83;;
9304;SDS011;4690;52.422;13.486;2022-12-07T12:50:40;5.20;;;3.03;;
9304;SDS011;4690;52.422;13.486;2022-12-07T12:53:14;4.13;;;3.03;;
9304;SDS011;4690;52.422;13.486;2022-12-07T12:56:11;5.07;;;3.10;;
9304;SDS011;4690;52.422;13.486;2022-12-07T12:59:28;5.40;;;3.23;;
9304;SDS011;4690;52.422;13.486;2022-12-07T13:04:52;5.10;;;2.80;;
9304;SDS011;4690;52.422;13.486;2022-12-07T13:18:16;6.67;;;3.10;;
9304;SDS011;4690;52.422;13.486;2022-12-07T13:20:56;8.73;;;3.07;;
9304;SDS011;4690;52.422;13.486;2022-12-07T13:29:18;5.27;;;2.50;;
9304;SDS011;4690;52.422;13.486;2022-12-07T13:31:55;6.50;;;2.67;;
9304;SDS011;4690;52.422;13.486;2022-12-07T13:37:24;6.40;;;2.80;;
9304;SDS011;4690;52.422;13.486;2022-12-07T13:42:25;3.80;;;2.60;;
9304;SDS011;4690;52.422;13.486;2022-12-07T13:45:01;5.23;;;2.60;;
9304;SDS011;4690;52.422;13.486;2022-12-07T13:48:16;3.67;;;2.57;;
9304;SDS011;4690;52.422;13.486;2022-12-07T13:50:53;5.90;;;2.73;;
9304;SDS011;4690;52.422;13.486;2022-12-07T13:53:20;4.57;;;2.50;;
9304;SDS011;4690;52.422;13.486;2022-12-07T13:55:47;4.17;;;2.70;;
9304;SDS011;4690;52.422;13.486;2022-12-07T13:58:13;5.27;;;2.57;;
9304;SDS011;4690;52.422;13.486;2022-12-07T14:00:40;4.57;;;2.60;;
9304;SDS011;4690;52.422;13.486;2022-12-07T14:05:37;6.30;;;2.90;;
9304;SDS011;4690;52.422;13.486;2022-12-07T14:13:35;6.23;;;3.47;;
9304;SDS011;4690;52.422;13.486;2022-12-07T14:16:16;5.93;;;3.00;;
9304;SDS011;4690;52.422;13.486;2022-12-07T14:18:53;7.40;;;2.90;;
9304;SDS011;4690;52.422;13.486;2022-12-07T14:21:24;4.00;;;2.90;;
9304;SDS011;4690;52.422;13.486;2022-12-07T14:26:46;4.70;;;3.10;;
9304;SDS011;4690;52.422;13.486;2022-12-07T14:31:55;6.87;;;3.00;;
9304;SDS011;4690;52.422;13.486;2022-12-07T14:34:40;4.53;;;2.80;;
9304;SDS011;4690;52.422;13.486;2022-12-07T14:37:07;8.60;;;3.00;;
9304;SDS011;4690;52.422;13.486;2022-12-07T14:39:35;3.87;;;2.77;;
9304;SDS011;4690;52.422;13.486;2022-12-07T14:42:01;9.60;;;2.97;;
9304;SDS011;4690;52.422;13.486;2022-12-07T14:44:27;8.63;;;3.37;;
9304;SDS011;4690;52.422;13.486;2022-12-07T14:46:53;4.13;;;2.60;;
9304;SDS011;4690;52.422;13.486;2022-12-07T14:49:19;6.73;;;3.00;;
9304;SDS011;4690;52.422;13.486;2022-12-07T14:51:46;5.67;;;3.03;;
9304;SDS011;4690;52.422;13.486;2022-12-07T14:54:19;6.37;;;3.00;;
9304;SDS011;4690;52.422;13.486;2022-12-07T14:56:49;8.20;;;3.37;;
9304;SDS011;4690;52.422;13.486;2022-12-07T14:59:16;5.70;;;2.93;;
9304;SDS011;4690;52.422;13.486;2022-12-07T15:01:43;7.20;;;3.00;;
9304;SDS011;4690;52.422;13.486;2022-12-07T15:04:09;7.20;;;3.10;;
9304;SDS011;4690;52.422;13.486;2022-12-07T15:06:35;7.23;;;3.13;;
9304;SDS011;4690;52.422;13.486;2022-12-07T15:09:01;6.57;;;3.27;;
9304;SDS011;4690;52.422;13.486;2022-12-07T15:11:28;8.60;;;3.93;;
9304;SDS011;4690;52.422;13.486;2022-12-07T15:13:54;6.73;;;3.30;;
9304;SDS011;4690;52.422;13.486;2022-12-07T15:16:36;7.57;;;3.13;;
9304;SDS011;4690;52.422;13.486;2022-12-07T15:19:05;4.77;;;2.93;;
9304;SDS011;4690;52.422;13.486;2022-12-07T15:21:42;6.23;;;3.00;;
9304;SDS011;4690;52.422;13.486;2022-12-07T15:24:12;8.13;;;2.90;;
9304;SDS011;4690;52.422;13.486;2022-12-07T15:26:38;7.87;;;2.90;;
9304;SDS011;4690;52.422;13.486;2022-12-07T15:29:05;6.43;;;3.20;;
9304;SDS011;4690;52.422;13.486;2022-12-07T15:31:32;6.23;;;2.87;;
9304;SDS011;4690;52.422;13.486;2022-12-07T15:33:58;7.97;;;3.53;;
9304;SDS011;4690;52.422;13.486;2022-12-07T15:36:25;7.57;;;3.07;;
9304;SDS011;4690;52.422;13.486;2022-12-07T15:38:54;8.57;;;3.43;;
9304;SDS011;4690;52.422;13.486;2022-12-07T15:41:21;5.40;;;3.40;;
9304;SDS011;4690;52.422;13.486;2022-12-07T15:43:47;4.80;;;3.50;;
9304;SDS011;4690;52.422;13.486;2022-12-07T15:46:35;7.87;;;3.50;;
9304;SDS011;4690;52.422;13.486;2022-12-07T15:49:09;6.60;;;4.00;;
9304;SDS011;4690;52.422;13.486;2022-12-07T15:51:41;6.83;;;4.53;;
9304;SDS011;4690;52.422;13.486;2022-12-07T15:54:18;7.10;;;3.50;;
9304;SDS011;4690;52.422;13.486;2022-12-07T15:56:49;8.43;;;3.53;;
9304;SDS011;4690;52.422;13.486;2022-12-07T15:59:16;9.97;;;3.30;;
9304;SDS011;4690;52.422;13.486;2022-12-07T16:01:42;7.83;;;3.60;;
9304;SDS011;4690;52.422;13.486;2022-12-07T16:04:09;7.87;;;3.40;;
9304;SDS011;4690;52.422;13.486;2022-12-07T16:06:35;5.17;;;3.40;;
9304;SDS011;4690;52.422;13.486;2022-12-07T16:09:01;7.43;;;3.90;;
9304;SDS011;4690;52.422;13.486;2022-12-07T16:11:28;6.90;;;3.40;;
9304;SDS011;4690;52.422;13.486;2022-12-07T16:13:54;7.30;;;3.67;;
9304;SDS011;4690;52.422;13.486;2022-12-07T16:16:20;10.00;;;3.50;;
9304;SDS011;4690;52.422;13.486;2022-12-07T16:18:47;5.93;;;3.00;;
9304;SDS011;4690;52.422;13.486;2022-12-07T16:21:15;7.83;;;4.07;;
9304;SDS011;4690;52.422;13.486;2022-12-07T16:23:42;7.77;;;4.20;;
9304;SDS011;4690;52.422;13.486;2022-12-07T16:26:10;6.23;;;3.40;;
9304;SDS011;4690;52.422;13.486;2022-12-07T16:28:45;6.63;;;3.50;;
9304;SDS011;4690;52.422;13.486;2022-12-07T16:31:15;7.07;;;3.50;;
9304;SDS011;4690;52.422;13.486;2022-12-07T16:33:44;7.03;;;3.33;;
9304;SDS011;4690;52.422;13.486;2022-12-07T16:36:11;6.77;;;3.67;;
9304;SDS011;4690;52.422;13.486;2022-12-07T16:38:40;8.47;;;4.33;;
9304;SDS011;4690;52.422;13.486;2022-12-07T16:41:07;7.57;;;4.43;;
9304;SDS011;4690;52.422;13.486;2022-12-07T16:43:35;9.70;;;4.17;;
9304;SDS011;4690;52.422;13.486;2022-12-07T16:46:02;9.23;;;3.80;;
9304;SDS011;4690;52.422;13.486;2022-12-07T16:48:29;7.67;;;4.47;;
9304;SDS011;4690;52.422;13.486;2022-12-07T16:50:55;6.47;;;3.50;;
9304;SDS011;4690;52.422;13.486;2022-12-07T16:53:21;6.53;;;3.77;;
9304;SDS011;4690;52.422;13.486;2022-12-07T16:55:49;7.57;;;3.80;;
9304;SDS011;4690;52.422;13.486;2022-12-07T16:58:16;6.13;;;3.30;;
9304;SDS011;4690;52.422;13.486;2022-12-07T17:00:43;4.87;;;3.17;;
9304;SDS011;4690;52.422;13.486;2022-12-07T17:03:10;6.73;;;3.70;;
9304;SDS011;4690;52.422;13.486;2022-12-07T17:05:40;5.80;;;3.30;;
9304;SDS011;4690;52.422;13.486;2022-12-07T17:08:08;8.30;;;3.23;;
9304;SDS011;4690;52.422;13.486;2022-12-07T17:10:36;6.50;;;3.33;;
9304;SDS011;4690;52.422;13.486;2022-12-07T17:13:05;6.97;;;3.23;;
9304;SDS011;4690;52.422;13.486;2022-12-07T17:15:58;7.27;;;3.77;;
9304;SDS011;4690;52.422;13.486;2022-12-07T17:18:31;5.67;;;3.23;;
9304;SDS011;4690;52.422;13.486;2022-12-07T17:21:03;6.97;;;3.53;;
9304;SDS011;4690;52.422;13.486;2022-12-07T17:23:33;7.60;;;3.40;;
9304;SDS011;4690;52.422;13.486;2022-12-07T17:26:06;6.47;;;3.10;;
9304;SDS011;4690;52.422;13.486;2022-12-07T17:28:36;5.97;;;3.20;;
9304;SDS011;4690;52.422;13.486;2022-12-07T17:31:06;7.43;;;3.30;;
9304;SDS011;4690;52.422;13.486;2022-12-07T17:33:35;6.50;;;3.63;;
9304;SDS011;4690;52.422;13.486;2022-12-07T17:36:08;6.97;;;3.67;;